Jomi — C6VK4 — position and weather

sailwx.info

Track history (hours):
 
Tides and Currents Weather Stations Pressure Air Temp Water Temp Dewpoint Dewpoint Depression Visibility Wind Speed Wind Dir Waves Ship Positions

Jomi

Last reported at 2017-Feb-24 05:29 UTC. Time now 2017-Feb-24 06:00 UTC.
Position N 51°02' E 002°16'.

Length 88 m; draft 3.9 m.

Type: Cargo ship. MMSI: 309701000.

Date/timePositionNaut miles runAvg speedWind from/ knotsBaromVisibWave heightAir tempDewpointWater temp
2017-Feb-24 05:29N 51°02' E 002°16'0 0.0
2017-Feb-24 04:32N 51°02' E 002°16'0 0.0
2017-Feb-24 03:29N 51°02' E 002°16'0 0.0
2017-Feb-24 01:08N 51°02' E 002°16'0 0.0
2017-Feb-23 23:26N 51°02' E 002°16'0 0.0
2017-Feb-23 18:32N 51°02' E 002°16'0 0.0
2017-Feb-23 09:28N 51°02' E 002°16'0 0.0
2017-Feb-23 06:10N 51°02' E 002°16'0 0.0
2017-Feb-23 03:16N 51°02' E 002°16'0 0.0
2017-Feb-23 00:28N 51°02' E 002°16'0 0.0
2017-Feb-22 18:04N 51°02' E 002°16'0 0.0
2017-Feb-22 12:28N 51°02' E 002°16'4 3.7
2017-Feb-22 11:28N 51°03' E 002°22'4 4.6
2017-Feb-22 10:33N 51°04' E 002°16'1111.3
2017-Feb-22 09:33N 51°02' E 001°58'9 9.4
2017-Feb-22 08:33N 51°05' E 001°43'3 2.8
2017-Feb-22 07:33N 51°08' E 001°42'5 4.5
2017-Feb-22 06:33N 51°12' E 001°45'5 5.5
2017-Feb-22 05:33N 51°16' E 001°50'7 6.7
2017-Feb-22 04:33N 51°22' E 001°55'8 7.6
2017-Feb-22 03:33N 51°28' E 002°02'8 7.9
2017-Feb-22 02:32N 51°34' E 002°11'7 6.7
2017-Feb-22 01:33N 51°39' E 002°18'57 6.9
2017-Feb-21 17:17N 52°03' E 003°43'7 9.3
2017-Feb-21 16:33N 52°02' E 003°54'1111.0
2017-Feb-21 15:33N 51°57' E 004°10'9 9.2
2017-Feb-21 14:33N 51°54' E 004°24'0 0.0
2017-Feb-21 13:31N 51°54' E 004°24'0 0.0
2017-Feb-21 12:31N 51°54' E 004°24'0 0.0
2017-Feb-21 11:31N 51°54' E 004°24'0 0.0
2017-Feb-21 10:31N 51°54' E 004°24'0 0.0
2017-Feb-21 09:31N 51°54' E 004°24'0 0.0
2017-Feb-21 08:31N 51°54' E 004°24'0 0.0
2017-Feb-21 07:31N 51°54' E 004°24'0 0.0
2017-Feb-21 06:31N 51°54' E 004°24'0 0.0
2017-Feb-21 05:31N 51°54' E 004°24'0 0.0
2017-Feb-21 04:31N 51°54' E 004°24'0 0.0
2017-Feb-21 03:31N 51°54' E 004°24'0 0.0
2017-Feb-21 02:31N 51°54' E 004°24'0 0.0
2017-Feb-21 01:31N 51°54' E 004°24'0 0.0
2017-Feb-21 00:31N 51°54' E 004°24'0 0.0
2017-Feb-20 23:31N 51°54' E 004°24'0 0.0
2017-Feb-20 22:31N 51°54' E 004°24'0 0.0
2017-Feb-20 21:34N 51°54' E 004°24'0 0.0
2017-Feb-20 20:33N 51°54' E 004°24'0 0.0
2017-Feb-20 19:33N 51°54' E 004°24'0 0.0
2017-Feb-20 18:33N 51°54' E 004°24'0 0.0
2017-Feb-20 17:33N 51°54' E 004°24'0 0.0
2017-Feb-20 16:33N 51°54' E 004°24'0 0.0
2017-Feb-20 15:33N 51°54' E 004°24'0 0.0
2017-Feb-20 14:33N 51°54' E 004°24'0 0.0
2017-Feb-20 13:33N 51°54' E 004°24'0 0.0
2017-Feb-20 12:33N 51°54' E 004°24'0 0.0
2017-Feb-20 11:33N 51°54' E 004°24'0 0.0
2017-Feb-20 10:33N 51°54' E 004°24'0 0.0
2017-Feb-20 09:33N 51°54' E 004°24'0 0.0
2017-Feb-20 08:33N 51°54' E 004°24'0 0.0
2017-Feb-20 07:33N 51°54' E 004°24'0 0.0
2017-Feb-20 06:33N 51°54' E 004°24'0 0.0
2017-Feb-20 05:33N 51°54' E 004°24'0 0.0
2017-Feb-20 04:33N 51°54' E 004°24'0 0.0
2017-Feb-20 03:33N 51°54' E 004°24'0 0.0
2017-Feb-20 02:33N 51°54' E 004°24'0 0.0
2017-Feb-20 01:33N 51°54' E 004°24'0 0.0
2017-Feb-20 00:33N 51°54' E 004°24'0 0.0
2017-Feb-19 23:33N 51°54' E 004°24'0 0.0
2017-Feb-19 22:33N 51°54' E 004°24'0 0.0
2017-Feb-19 21:33N 51°54' E 004°24'0 0.0
2017-Feb-19 20:33N 51°54' E 004°24'0 0.0
2017-Feb-19 19:33N 51°54' E 004°24'0 0.0
2017-Feb-19 18:33N 51°54' E 004°24'0 0.0
2017-Feb-19 17:33N 51°54' E 004°24'0 0.0
2017-Feb-19 16:33N 51°54' E 004°24'0 0.0
2017-Feb-19 15:33N 51°54' E 004°24'0 0.0
2017-Feb-19 14:30N 51°54' E 004°24'0 0.0
2017-Feb-19 13:33N 51°54' E 004°24'0 0.0
2017-Feb-19 12:33N 51°54' E 004°24'0 0.0
2017-Feb-19 11:33N 51°54' E 004°24'0 0.0
2017-Feb-19 10:32N 51°54' E 004°24'0 0.0
2017-Feb-19 09:32N 51°54' E 004°24'0 0.0
2017-Feb-19 08:32N 51°54' E 004°24'0 0.0
2017-Feb-19 07:32N 51°54' E 004°24'0 0.0
2017-Feb-19 06:32N 51°54' E 004°24'0 0.0
2017-Feb-19 05:32N 51°54' E 004°24'0 0.0
2017-Feb-19 04:33N 51°54' E 004°24'0 0.0
2017-Feb-19 03:33N 51°54' E 004°24'0 0.0
2017-Feb-19 02:33N 51°54' E 004°24'0 0.0
2017-Feb-19 01:33N 51°54' E 004°24'0 0.0
2017-Feb-19 00:33N 51°54' E 004°24'0 0.0
2017-Feb-18 23:32N 51°54' E 004°24'0 0.0
2017-Feb-18 22:33N 51°54' E 004°24'0 0.0
2017-Feb-18 21:32N 51°54' E 004°24'0 0.0
2017-Feb-18 20:32N 51°54' E 004°24'0 0.0
2017-Feb-18 19:32N 51°54' E 004°24'0 0.0
2017-Feb-18 18:32N 51°54' E 004°24'0 0.0
2017-Feb-18 17:32N 51°54' E 004°24'0 0.0
2017-Feb-18 16:32N 51°54' E 004°24'0 0.0
2017-Feb-18 15:32N 51°54' E 004°24'0 0.0
2017-Feb-18 14:32N 51°54' E 004°24'0 0.0
2017-Feb-18 13:32N 51°54' E 004°24'0 0.0
2017-Feb-18 12:32N 51°54' E 004°24'0 0.0
2017-Feb-18 11:32N 51°54' E 004°24'0 0.0
2017-Feb-18 10:32N 51°54' E 004°24'0 0.0
2017-Feb-18 09:32N 51°54' E 004°24'0 0.0
2017-Feb-18 08:32N 51°54' E 004°24'0 0.0
2017-Feb-18 07:32N 51°54' E 004°24'0 0.1
2017-Feb-18 06:34N 51°54' E 004°24'9 9.2
2017-Feb-18 05:34N 51°57' E 004°10'10 9.7
2017-Feb-18 04:33N 51°60' E 003°55'18 8.7
2017-Feb-18 02:28N 51°56' E 003°26'7 8.0
2017-Feb-18 01:33N 51°54' E 003°14'41 8.2
2017-Feb-17 20:33N 52°00' E 002°09'9 9.1
2017-Feb-17 19:33N 52°01' E 001°54'10 9.5
2017-Feb-17 18:34N 52°02' E 001°39'1110.6
2017-Feb-17 17:33N 51°56' E 001°25'8 8.0
2017-Feb-17 16:34N 51°60' E 001°14'3 3.3
2017-Feb-17 15:33N 52°02' E 001°10'0 0.0
2017-Feb-17 14:33N 52°02' E 001°10'0 0.0
2017-Feb-17 13:33N 52°02' E 001°10'0 0.0
2017-Feb-17 12:33N 52°02' E 001°10'0 0.0
2017-Feb-17 11:33N 52°02' E 001°10'0 0.0
2017-Feb-17 10:33N 52°02' E 001°10'0 0.0
2017-Feb-17 09:33N 52°02' E 001°10'0 0.0
2017-Feb-17 08:33N 52°02' E 001°10'0 0.0
2017-Feb-17 07:33N 52°02' E 001°10'0 0.0
2017-Feb-17 06:33N 52°02' E 001°10'0 0.0
2017-Feb-17 05:33N 52°02' E 001°10'0 0.0
2017-Feb-17 04:33N 52°02' E 001°10'0 0.0
2017-Feb-17 03:33N 52°02' E 001°10'0 0.0
2017-Feb-17 02:33N 52°02' E 001°10'0 0.0
2017-Feb-17 01:33N 52°02' E 001°10'0 0.0
2017-Feb-17 00:33N 52°02' E 001°10'0 0.0
2017-Feb-16 23:33N 52°02' E 001°10'0 0.0
2017-Feb-16 22:33N 52°02' E 001°10'0 0.0
2017-Feb-16 21:33N 52°02' E 001°10'0 0.0
2017-Feb-16 20:33N 52°02' E 001°10'0 0.0
2017-Feb-16 19:33N 52°02' E 001°10'0 0.0
2017-Feb-16 18:33N 52°02' E 001°10'0 0.0
2017-Feb-16 17:30N 52°02' E 001°10'0 0.0
2017-Feb-16 16:33N 52°02' E 001°10'0 0.0
2017-Feb-16 15:33N 52°02' E 001°10'0 0.0
2017-Feb-16 14:32N 52°02' E 001°10'0 0.0
2017-Feb-16 13:32N 52°02' E 001°10'0 0.0
2017-Feb-16 12:32N 52°02' E 001°10'0 0.0
2017-Feb-16 11:32N 52°02' E 001°10'0 0.0
2017-Feb-16 10:32N 52°02' E 001°10'0 0.0
2017-Feb-16 09:32N 52°02' E 001°10'0 0.0
2017-Feb-16 08:32N 52°02' E 001°10'0 0.3
2017-Feb-16 07:33N 52°02' E 001°09'8 7.7
2017-Feb-16 06:33N 51°57' E 001°18'8 8.1
2017-Feb-16 05:33N 51°58' E 001°32'7 7.2
2017-Feb-16 04:33N 52°02' E 001°41'9 8.7
2017-Feb-16 03:33N 52°02' E 001°55'9 8.8
2017-Feb-16 02:33N 52°02' E 002°09'58 9.4
2017-Feb-15 20:28N 52°03' E 003°43'8 8.6
2017-Feb-15 19:33N 52°02' E 003°55'1110.8
2017-Feb-15 18:33N 51°57' E 004°11'5 4.8
2017-Feb-15 17:33N 51°53' E 004°17'0 0.0
2017-Feb-15 16:32N 51°53' E 004°17'0 0.0
2017-Feb-15 15:29N 51°53' E 004°17'0 0.0
2017-Feb-15 14:32N 51°53' E 004°17'0 0.0
2017-Feb-15 13:32N 51°53' E 004°17'0 0.0
2017-Feb-15 12:32N 51°53' E 004°17'0 0.0
2017-Feb-15 11:32N 51°53' E 004°17'0 0.0
2017-Feb-15 10:32N 51°53' E 004°17'0 0.0
2017-Feb-15 09:32N 51°53' E 004°17'0 0.0
2017-Feb-15 08:32N 51°53' E 004°17'0 0.0
2017-Feb-15 07:31N 51°53' E 004°17'0 0.0
2017-Feb-15 06:31N 51°53' E 004°17'0 0.0
2017-Feb-15 05:28N 51°53' E 004°17'0 0.0
2017-Feb-15 04:31N 51°53' E 004°17'0 0.0
2017-Feb-15 03:32N 51°53' E 004°17'0 0.0
2017-Feb-15 02:32N 51°53' E 004°17'0 0.0
2017-Feb-15 01:32N 51°53' E 004°17'0 0.0
2017-Feb-15 00:29N 51°53' E 004°17'0 0.0
2017-Feb-14 23:32N 51°53' E 004°17'0 0.0
2017-Feb-14 22:32N 51°53' E 004°17'1 1.0
2017-Feb-14 21:33N 51°53' E 004°18'7 7.0
2017-Feb-14 20:33N 51°58' E 004°09'9 8.7
2017-Feb-14 19:33N 52°00' E 003°56'7 7.1
2017-Feb-14 18:33N 52°05' E 003°47'8 8.0
2017-Feb-14 17:33N 52°11' E 003°39'  
Track history (hours):
 
Tides and Currents Weather Stations Pressure Air Temp Water Temp Dewpoint Dewpoint Depression Visibility Wind Speed Wind Dir Waves Ship Positions

Jomi

Last reported at 2017-Feb-24 05:29 UTC. Time now 2017-Feb-24 06:00 UTC.
Position N 51°02' E 002°16'.

Length 88 m; draft 3.9 m.

Type: Cargo ship. MMSI: 309701000.

Date/timePositionNaut miles runAvg speedWind from/ knotsBaromVisibWave heightAir tempDewpointWater temp
2017-Feb-24 05:29N 51°02' E 002°16'0 0.0
2017-Feb-24 04:32N 51°02' E 002°16'0 0.0
2017-Feb-24 03:29N 51°02' E 002°16'0 0.0
2017-Feb-24 01:08N 51°02' E 002°16'0 0.0
2017-Feb-23 23:26N 51°02' E 002°16'0 0.0
2017-Feb-23 18:32N 51°02' E 002°16'0 0.0
2017-Feb-23 09:28N 51°02' E 002°16'0 0.0
2017-Feb-23 06:10N 51°02' E 002°16'0 0.0
2017-Feb-23 03:16N 51°02' E 002°16'0 0.0
2017-Feb-23 00:28N 51°02' E 002°16'0 0.0
2017-Feb-22 18:04N 51°02' E 002°16'0 0.0
2017-Feb-22 12:28N 51°02' E 002°16'4 3.7
2017-Feb-22 11:28N 51°03' E 002°22'4 4.6
2017-Feb-22 10:33N 51°04' E 002°16'1111.3
2017-Feb-22 09:33N 51°02' E 001°58'9 9.4
2017-Feb-22 08:33N 51°05' E 001°43'3 2.8
2017-Feb-22 07:33N 51°08' E 001°42'5 4.5
2017-Feb-22 06:33N 51°12' E 001°45'5 5.5
2017-Feb-22 05:33N 51°16' E 001°50'7 6.7
2017-Feb-22 04:33N 51°22' E 001°55'8 7.6
2017-Feb-22 03:33N 51°28' E 002°02'8 7.9
2017-Feb-22 02:32N 51°34' E 002°11'7 6.7
2017-Feb-22 01:33N 51°39' E 002°18'57 6.9
2017-Feb-21 17:17N 52°03' E 003°43'7 9.3
2017-Feb-21 16:33N 52°02' E 003°54'1111.0
2017-Feb-21 15:33N 51°57' E 004°10'9 9.2
2017-Feb-21 14:33N 51°54' E 004°24'0 0.0
2017-Feb-21 13:31N 51°54' E 004°24'0 0.0
2017-Feb-21 12:31N 51°54' E 004°24'0 0.0
2017-Feb-21 11:31N 51°54' E 004°24'0 0.0
2017-Feb-21 10:31N 51°54' E 004°24'0 0.0
2017-Feb-21 09:31N 51°54' E 004°24'0 0.0
2017-Feb-21 08:31N 51°54' E 004°24'0 0.0
2017-Feb-21 07:31N 51°54' E 004°24'0 0.0
2017-Feb-21 06:31N 51°54' E 004°24'0 0.0
2017-Feb-21 05:31N 51°54' E 004°24'0 0.0
2017-Feb-21 04:31N 51°54' E 004°24'0 0.0
2017-Feb-21 03:31N 51°54' E 004°24'0 0.0
2017-Feb-21 02:31N 51°54' E 004°24'0 0.0
2017-Feb-21 01:31N 51°54' E 004°24'0 0.0
2017-Feb-21 00:31N 51°54' E 004°24'0 0.0
2017-Feb-20 23:31N 51°54' E 004°24'0 0.0
2017-Feb-20 22:31N 51°54' E 004°24'0 0.0
2017-Feb-20 21:34N 51°54' E 004°24'0 0.0
2017-Feb-20 20:33N 51°54' E 004°24'0 0.0
2017-Feb-20 19:33N 51°54' E 004°24'0 0.0
2017-Feb-20 18:33N 51°54' E 004°24'0 0.0
2017-Feb-20 17:33N 51°54' E 004°24'0 0.0
2017-Feb-20 16:33N 51°54' E 004°24'0 0.0
2017-Feb-20 15:33N 51°54' E 004°24'0 0.0
2017-Feb-20 14:33N 51°54' E 004°24'0 0.0
2017-Feb-20 13:33N 51°54' E 004°24'0 0.0
2017-Feb-20 12:33N 51°54' E 004°24'0 0.0
2017-Feb-20 11:33N 51°54' E 004°24'0 0.0
2017-Feb-20 10:33N 51°54' E 004°24'0 0.0
2017-Feb-20 09:33N 51°54' E 004°24'0 0.0
2017-Feb-20 08:33N 51°54' E 004°24'0 0.0
2017-Feb-20 07:33N 51°54' E 004°24'0 0.0
2017-Feb-20 06:33N 51°54' E 004°24'0 0.0
2017-Feb-20 05:33N 51°54' E 004°24'0 0.0
2017-Feb-20 04:33N 51°54' E 004°24'0 0.0
2017-Feb-20 03:33N 51°54' E 004°24'0 0.0
2017-Feb-20 02:33N 51°54' E 004°24'0 0.0
2017-Feb-20 01:33N 51°54' E 004°24'0 0.0
2017-Feb-20 00:33N 51°54' E 004°24'0 0.0
2017-Feb-19 23:33N 51°54' E 004°24'0 0.0
2017-Feb-19 22:33N 51°54' E 004°24'0 0.0
2017-Feb-19 21:33N 51°54' E 004°24'0 0.0
2017-Feb-19 20:33N 51°54' E 004°24'0 0.0
2017-Feb-19 19:33N 51°54' E 004°24'0 0.0
2017-Feb-19 18:33N 51°54' E 004°24'0 0.0
2017-Feb-19 17:33N 51°54' E 004°24'0 0.0
2017-Feb-19 16:33N 51°54' E 004°24'0 0.0
2017-Feb-19 15:33N 51°54' E 004°24'0 0.0
2017-Feb-19 14:30N 51°54' E 004°24'0 0.0
2017-Feb-19 13:33N 51°54' E 004°24'0 0.0
2017-Feb-19 12:33N 51°54' E 004°24'0 0.0
2017-Feb-19 11:33N 51°54' E 004°24'0 0.0
2017-Feb-19 10:32N 51°54' E 004°24'0 0.0
2017-Feb-19 09:32N 51°54' E 004°24'0 0.0
2017-Feb-19 08:32N 51°54' E 004°24'0 0.0
2017-Feb-19 07:32N 51°54' E 004°24'0 0.0
2017-Feb-19 06:32N 51°54' E 004°24'0 0.0
2017-Feb-19 05:32N 51°54' E 004°24'0 0.0
2017-Feb-19 04:33N 51°54' E 004°24'0 0.0
2017-Feb-19 03:33N 51°54' E 004°24'0 0.0
2017-Feb-19 02:33N 51°54' E 004°24'0 0.0
2017-Feb-19 01:33N 51°54' E 004°24'0 0.0
2017-Feb-19 00:33N 51°54' E 004°24'0 0.0
2017-Feb-18 23:32N 51°54' E 004°24'0 0.0
2017-Feb-18 22:33N 51°54' E 004°24'0 0.0
2017-Feb-18 21:32N 51°54' E 004°24'0 0.0
2017-Feb-18 20:32N 51°54' E 004°24'0 0.0
2017-Feb-18 19:32N 51°54' E 004°24'0 0.0
2017-Feb-18 18:32N 51°54' E 004°24'0 0.0
2017-Feb-18 17:32N 51°54' E 004°24'0 0.0
2017-Feb-18 16:32N 51°54' E 004°24'0 0.0
2017-Feb-18 15:32N 51°54' E 004°24'0 0.0
2017-Feb-18 14:32N 51°54' E 004°24'0 0.0
2017-Feb-18 13:32N 51°54' E 004°24'0 0.0
2017-Feb-18 12:32N 51°54' E 004°24'0 0.0
2017-Feb-18 11:32N 51°54' E 004°24'0 0.0
2017-Feb-18 10:32N 51°54' E 004°24'0 0.0
2017-Feb-18 09:32N 51°54' E 004°24'0 0.0
2017-Feb-18 08:32N 51°54' E 004°24'0 0.0
2017-Feb-18 07:32N 51°54' E 004°24'0 0.1
2017-Feb-18 06:34N 51°54' E 004°24'9 9.2
2017-Feb-18 05:34N 51°57' E 004°10'10 9.7
2017-Feb-18 04:33N 51°60' E 003°55'18 8.7
2017-Feb-18 02:28N 51°56' E 003°26'7 8.0
2017-Feb-18 01:33N 51°54' E 003°14'41 8.2
2017-Feb-17 20:33N 52°00' E 002°09'9 9.1
2017-Feb-17 19:33N 52°01' E 001°54'10 9.5
2017-Feb-17 18:34N 52°02' E 001°39'1110.6
2017-Feb-17 17:33N 51°56' E 001°25'8 8.0
2017-Feb-17 16:34N 51°60' E 001°14'3 3.3
2017-Feb-17 15:33N 52°02' E 001°10'0 0.0
2017-Feb-17 14:33N 52°02' E 001°10'0 0.0
2017-Feb-17 13:33N 52°02' E 001°10'0 0.0
2017-Feb-17 12:33N 52°02' E 001°10'0 0.0
2017-Feb-17 11:33N 52°02' E 001°10'0 0.0
2017-Feb-17 10:33N 52°02' E 001°10'0 0.0
2017-Feb-17 09:33N 52°02' E 001°10'0 0.0
2017-Feb-17 08:33N 52°02' E 001°10'0 0.0
2017-Feb-17 07:33N 52°02' E 001°10'0 0.0
2017-Feb-17 06:33N 52°02' E 001°10'0 0.0
2017-Feb-17 05:33N 52°02' E 001°10'0 0.0
2017-Feb-17 04:33N 52°02' E 001°10'0 0.0
2017-Feb-17 03:33N 52°02' E 001°10'0 0.0
2017-Feb-17 02:33N 52°02' E 001°10'0 0.0
2017-Feb-17 01:33N 52°02' E 001°10'0 0.0
2017-Feb-17 00:33N 52°02' E 001°10'0 0.0
2017-Feb-16 23:33N 52°02' E 001°10'0 0.0
2017-Feb-16 22:33N 52°02' E 001°10'0 0.0
2017-Feb-16 21:33N 52°02' E 001°10'0 0.0
2017-Feb-16 20:33N 52°02' E 001°10'0 0.0
2017-Feb-16 19:33N 52°02' E 001°10'0 0.0
2017-Feb-16 18:33N 52°02' E 001°10'0 0.0
2017-Feb-16 17:30N 52°02' E 001°10'0 0.0
2017-Feb-16 16:33N 52°02' E 001°10'0 0.0
2017-Feb-16 15:33N 52°02' E 001°10'0 0.0
2017-Feb-16 14:32N 52°02' E 001°10'0 0.0
2017-Feb-16 13:32N 52°02' E 001°10'0 0.0
2017-Feb-16 12:32N 52°02' E 001°10'0 0.0
2017-Feb-16 11:32N 52°02' E 001°10'0 0.0
2017-Feb-16 10:32N 52°02' E 001°10'0 0.0
2017-Feb-16 09:32N 52°02' E 001°10'0 0.0
2017-Feb-16 08:32N 52°02' E 001°10'0 0.3
2017-Feb-16 07:33N 52°02' E 001°09'8 7.7
2017-Feb-16 06:33N 51°57' E 001°18'8 8.1
2017-Feb-16 05:33N 51°58' E 001°32'7 7.2
2017-Feb-16 04:33N 52°02' E 001°41'9 8.7
2017-Feb-16 03:33N 52°02' E 001°55'9 8.8
2017-Feb-16 02:33N 52°02' E 002°09'58 9.4
2017-Feb-15 20:28N 52°03' E 003°43'8 8.6
2017-Feb-15 19:33N 52°02' E 003°55'1110.8
2017-Feb-15 18:33N 51°57' E 004°11'5 4.8
2017-Feb-15 17:33N 51°53' E 004°17'0 0.0
2017-Feb-15 16:32N 51°53' E 004°17'0 0.0
2017-Feb-15 15:29N 51°53' E 004°17'0 0.0
2017-Feb-15 14:32N 51°53' E 004°17'0 0.0
2017-Feb-15 13:32N 51°53' E 004°17'0 0.0
2017-Feb-15 12:32N 51°53' E 004°17'0 0.0
2017-Feb-15 11:32N 51°53' E 004°17'0 0.0
2017-Feb-15 10:32N 51°53' E 004°17'0 0.0
2017-Feb-15 09:32N 51°53' E 004°17'0 0.0
2017-Feb-15 08:32N 51°53' E 004°17'0 0.0
2017-Feb-15 07:31N 51°53' E 004°17'0 0.0
2017-Feb-15 06:31N 51°53' E 004°17'0 0.0
2017-Feb-15 05:28N 51°53' E 004°17'0 0.0
2017-Feb-15 04:31N 51°53' E 004°17'0 0.0
2017-Feb-15 03:32N 51°53' E 004°17'0 0.0
2017-Feb-15 02:32N 51°53' E 004°17'0 0.0
2017-Feb-15 01:32N 51°53' E 004°17'0 0.0
2017-Feb-15 00:29N 51°53' E 004°17'0 0.0
2017-Feb-14 23:32N 51°53' E 004°17'0 0.0
2017-Feb-14 22:32N 51°53' E 004°17'1 1.0
2017-Feb-14 21:33N 51°53' E 004°18'7 7.0
2017-Feb-14 20:33N 51°58' E 004°09'9 8.7
2017-Feb-14 19:33N 52°00' E 003°56'7 7.1
2017-Feb-14 18:33N 52°05' E 003°47'8 8.0
2017-Feb-14 17:33N 52°11' E 003°39'  

Dump ship's entire track history